Time;durP1;ratioP1;P1;durP2;ratioP2;P2;SDS_P1;SDS_P2;PMS_P1;PMS_P2;Temp;Humidity;BMP_temperature;BMP_pressure;BME280_temperature;BME280_humidity;BME280_pressure;Samples;Min_cycle;Max_cycle;Signal;HPM_P1;HPM_P2
2023/02/10 00:01:46;;;;;;;25.25;11.88;;;2.00;67.10;;;;;;2304148;54;20932;-71
2023/02/10 00:04:14;;;;;;;20.05;10.50;;;2.10;67.00;;;;;;2306384;55;20955;-72
2023/02/10 00:06:40;;;;;;;25.17;11.32;;;2.00;67.10;;;;;;2542214;53;21860;-73
2023/02/10 00:09:07;;;;;;;20.00;9.95;;;2.00;67.10;;;;;;2303904;54;20912;-73
2023/02/10 00:14:18;;;;;;;21.87;10.70;;;1.90;66.90;;;;;;2304336;54;21226;-69
2023/02/10 00:16:48;;;;;;;25.77;12.02;;;1.90;66.90;;;;;;2303878;54;20966;-71
2023/02/10 00:19:19;;;;;;;23.85;10.93;;;1.90;66.80;;;;;;2315873;54;21001;-71
2023/02/10 00:21:45;;;;;;;22.15;10.13;;;1.90;66.80;;;;;;2537030;53;20924;-69
2023/02/10 00:24:12;;;;;;;25.05;12.65;;;1.90;66.80;;;;;;2325959;54;21698;-73
2023/02/10 00:26:38;;;;;;;23.17;11.15;;;1.80;66.70;;;;;;2547175;53;20928;-74
2023/02/10 00:29:04;;;;;;;19.87;10.57;;;1.80;66.70;;;;;;2327510;54;21934;-70
2023/02/10 00:31:31;;;;;;;24.95;12.32;;;1.80;66.70;;;;;;2376658;53;21094;-69
2023/02/10 00:33:57;;;;;;;22.35;11.68;;;1.80;66.70;;;;;;2320623;54;20911;-71
2023/02/10 00:36:24;;;;;;;23.85;11.48;;;1.80;66.70;;;;;;2309105;54;20995;-71
2023/02/10 00:38:50;;;;;;;23.65;11.12;;;1.70;66.60;;;;;;2308246;54;20974;-72
2023/02/10 00:41:18;;;;;;;25.25;11.77;;;1.70;66.60;;;;;;2308702;54;20951;-73
2023/02/10 00:43:44;;;;;;;22.35;11.02;;;1.70;66.60;;;;;;2308485;54;20944;-69
2023/02/10 00:46:15;;;;;;;22.27;11.05;;;1.70;66.60;;;;;;2308729;54;21877;-73
2023/02/10 00:48:42;;;;;;;25.52;11.75;;;1.60;66.50;;;;;;2357404;53;20916;-72
2023/02/10 00:51:08;;;;;;;23.05;11.23;;;1.60;66.60;;;;;;2308431;54;20971;-72
2023/02/10 00:53:34;;;;;;;18.90;9.30;;;1.60;66.70;;;;;;2307860;54;20988;-71
2023/02/10 00:56:01;;;;;;;21.90;10.77;;;1.60;66.80;;;;;;2308271;54;21227;-69
2023/02/10 00:58:28;;;;;;;25.40;13.13;;;1.60;66.80;;;;;;2329151;54;20971;-73
2023/02/10 01:00:54;;;;;;;21.27;9.90;;;1.60;66.80;;;;;;2307848;54;20936;-72
2023/02/10 01:03:21;;;;;;;19.77;9.30;;;1.60;66.90;;;;;;2389747;53;20923;-73
2023/02/10 01:05:56;;;;;;;22.52;11.05;;;1.60;66.80;;;;;;2493247;53;21261;-71
2023/02/10 01:08:22;;;;;;;22.67;11.32;;;1.50;66.60;;;;;;2306851;54;20943;-71
2023/02/10 01:10:48;;;;;;;21.65;11.05;;;1.50;66.60;;;;;;2307996;54;20912;-71
2023/02/10 01:13:15;;;;;;;24.50;10.90;;;1.50;66.60;;;;;;2322331;54;20953;-68
2023/02/10 01:15:45;;;;;;;22.10;10.95;;;1.50;66.60;;;;;;2302282;54;21455;-73
2023/02/10 01:18:12;;;;;;;26.60;12.45;;;1.40;66.50;;;;;;2308507;54;21846;-72
2023/02/10 01:20:40;;;;;;;22.90;10.82;;;1.50;66.60;;;;;;2319734;54;21573;-69
2023/02/10 01:23:07;;;;;;;21.75;10.50;;;1.50;66.60;;;;;;2315326;54;20939;-73
2023/02/10 01:25:34;;;;;;;17.98;9.07;;;1.40;66.50;;;;;;2467183;53;20959;-72
2023/02/10 01:28:01;;;;;;;20.15;9.43;;;1.40;66.50;;;;;;2308050;54;20972;-70
2023/02/10 01:30:27;;;;;;;26.15;12.57;;;1.40;66.40;;;;;;2547520;53;20920;-71
2023/02/10 01:32:58;;;;;;;20.83;10.63;;;1.40;66.40;;;;;;2307697;54;20967;-73
2023/02/10 01:35:24;;;;;;;20.23;9.90;;;1.30;66.30;;;;;;2547445;53;20924;-69
2023/02/10 01:37:50;;;;;;;24.37;11.88;;;1.30;66.30;;;;;;2308161;54;20940;-71
2023/02/10 01:40:19;;;;;;;21.42;10.45;;;1.30;66.30;;;;;;2504682;53;20983;-72
2023/02/10 01:42:45;;;;;;;19.65;9.82;;;1.30;66.30;;;;;;2307827;54;21325;-74
2023/02/10 01:45:35;;;;;;;22.45;11.30;;;1.20;66.20;;;;;;2308590;54;20991;-68
2023/02/10 01:48:02;;;;;;;24.33;11.15;;;1.20;66.10;;;;;;2307750;54;20939;-73
2023/02/10 01:50:30;;;;;;;21.35;10.57;;;1.20;66.20;;;;;;2308473;54;21492;-73
2023/02/10 01:52:58;;;;;;;29.85;12.35;;;1.20;66.20;;;;;;2315966;54;21848;-70
2023/02/10 01:55:28;;;;;;;22.13;11.38;;;1.20;66.30;;;;;;2317213;54;21440;-69
2023/02/10 01:57:55;;;;;;;23.15;10.57;;;1.10;66.20;;;;;;2308334;54;20998;-72
2023/02/10 02:00:25;;;;;;;20.33;9.77;;;1.10;66.30;;;;;;2308793;54;21007;-73
2023/02/10 02:02:51;;;;;;;26.17;12.60;;;1.10;66.20;;;;;;2441031;53;21404;-71
2023/02/10 02:05:37;;;;;;;20.42;10.75;;;1.10;66.30;;;;;;2308666;54;21520;-70
2023/02/10 02:08:21;;;;;;;21.10;10.05;;;1.10;66.20;;;;;;2307110;54;20939;-74
2023/02/10 02:16:35;;;;;;;19.73;9.18;;;1.00;66.10;;;;;;2313900;54;21319;-74
2023/02/10 02:20:40;;;;;;;22.23;10.07;;;1.00;65.40;;;;;;2436432;53;21868;-70
2023/02/10 02:23:36;;;;;;;16.90;8.40;;;1.00;66.00;;;;;;2306901;54;21364;-74
2023/02/10 02:29:34;;;;;;;21.85;9.18;;;0.90;66.00;;;;;;2307330;54;21475;-70
2023/02/10 02:32:21;;;;;;;20.52;8.65;;;0.90;65.40;;;;;;2307322;54;20971;-70
2023/02/10 02:35:25;;;;;;;17.65;8.57;;;0.80;65.90;;;;;;2307749;54;20944;-70
2023/02/10 02:37:53;;;;;;;19.10;8.27;;;0.80;65.70;;;;;;2307128;54;20927;-72
2023/02/10 02:40:20;;;;;;;18.58;9.27;;;0.80;66.00;;;;;;2307245;53;21042;-73
2023/02/10 02:42:48;;;;;;;19.85;9.73;;;0.70;65.90;;;;;;2307130;54;20923;-73
2023/02/10 02:47:19;;;;;;;20.75;9.63;;;0.70;66.00;;;;;;2303941;54;21037;-70
2023/02/10 02:50:25;;;;;;;18.25;8.95;;;0.70;65.60;;;;;;2307245;54;20915;-72
2023/02/10 02:54:47;;;;;;;20.45;8.70;;;0.70;66.20;;;;;;2307172;53;20939;-70
2023/02/10 02:59:01;;;;;;;21.08;8.73;;;0.60;65.60;;;;;;2405024;53;21579;-69
2023/02/10 03:01:34;;;;;;;20.98;9.00;;;0.60;65.60;;;;;;2319325;54;21138;-74
2023/02/10 03:04:01;;;;;;;16.45;8.43;;;0.60;66.10;;;;;;2311941;54;21330;-71
2023/02/10 03:06:30;;;;;;;19.67;9.82;;;0.60;66.20;;;;;;2307541;54;20912;-72
2023/02/10 03:08:56;;;;;;;18.73;8.80;;;0.50;66.10;;;;;;2307814;54;20952;-72
2023/02/10 03:11:23;;;;;;;28.62;13.07;;;0.50;66.10;;;;;;2434351;53;20947;-71
2023/02/10 03:13:49;;;;;;;24.50;12.43;;;0.40;66.00;;;;;;2308351;54;20896;-70
2023/02/10 03:16:15;;;;;;;28.12;11.55;;;0.50;66.10;;;;;;2308812;54;21748;-71
2023/02/10 03:18:41;;;;;;;24.52;10.45;;;0.50;66.20;;;;;;2308378;54;20927;-72
2023/02/10 03:21:08;;;;;;;22.50;10.93;;;0.50;66.20;;;;;;2538803;53;21088;-73
2023/02/10 03:23:34;;;;;;;31.30;14.30;;;0.50;66.30;;;;;;2308470;54;20995;-71
2023/02/10 03:26:03;;;;;;;22.00;11.25;;;0.40;66.10;;;;;;2307676;54;20943;-70
2023/02/10 03:28:29;;;;;;;26.73;12.37;;;0.40;66.10;;;;;;2308356;54;20971;-71
2023/02/10 03:30:56;;;;;;;24.12;10.48;;;0.40;66.10;;;;;;2308054;54;20963;-70
2023/02/10 03:33:22;;;;;;;23.12;10.93;;;0.40;66.10;;;;;;2418892;53;20984;-69
2023/02/10 03:35:49;;;;;;;21.90;10.30;;;0.40;66.10;;;;;;2307803;54;21010;-73
2023/02/10 03:38:18;;;;;;;21.23;10.15;;;0.40;66.10;;;;;;2404538;53;21004;-70
2023/02/10 03:40:44;;;;;;;29.17;13.55;;;0.40;66.10;;;;;;2309322;54;20960;-70
2023/02/10 03:43:10;;;;;;;24.55;11.95;;;0.40;66.10;;;;;;2312583;54;21059;-73
2023/02/10 03:45:40;;;;;;;20.05;10.38;;;0.30;66.10;;;;;;2308235;54;20892;-72
2023/02/10 03:48:06;;;;;;;22.80;11.40;;;0.30;66.10;;;;;;2308167;54;20912;-72
2023/02/10 03:50:32;;;;;;;22.23;11.07;;;0.30;66.10;;;;;;2318258;54;21007;-72
2023/02/10 03:53:02;;;;;;;22.70;11.40;;;0.30;66.00;;;;;;2307875;54;21241;-71
2023/02/10 03:55:29;;;;;;;28.80;12.85;;;0.30;66.00;;;;;;2332615;54;20931;-72
2023/02/10 03:57:55;;;;;;;23.08;11.07;;;0.30;66.00;;;;;;2308619;54;20896;-70
2023/02/10 04:00:22;;;;;;;29.70;13.70;;;0.30;66.00;;;;;;2443504;53;20959;-70
2023/02/10 04:02:49;;;;;;;28.87;13.18;;;0.20;65.90;;;;;;2322156;54;21032;-72
2023/02/10 04:05:16;;;;;;;29.45;13.15;;;0.20;65.90;;;;;;2358436;53;21570;-73
2023/02/10 04:07:42;;;;;;;30.02;14.50;;;0.20;66.00;;;;;;2308156;54;21739;-74
2023/02/10 04:10:08;;;;;;;23.52;11.07;;;0.20;66.00;;;;;;2314418;54;21794;-74
2023/02/10 04:12:37;;;;;;;23.35;10.85;;;0.20;66.70;;;;;;2308625;54;21538;-73
2023/02/10 04:15:05;;;;;;;21.35;10.15;;;0.20;66.00;;;;;;2308220;54;21772;-69
2023/02/10 04:17:32;;;;;;;29.73;13.40;;;0.20;66.00;;;;;;2308551;54;21558;-72
2023/02/10 04:19:58;;;;;;;28.58;12.68;;;0.10;65.90;;;;;;2307912;54;21003;-72
2023/02/10 04:22:25;;;;;;;29.40;13.35;;;0.10;65.90;;;;;;2308657;54;20948;-71
2023/02/10 04:24:52;;;;;;;27.65;11.98;;;0.10;66.00;;;;;;2307931;54;21015;-70
2023/02/10 04:27:18;;;;;;;22.73;10.73;;;0.10;66.00;;;;;;2308725;54;20952;-71
2023/02/10 04:29:44;;;;;;;24.65;11.20;;;0.10;66.00;;;;;;2308472;54;20999;-72
2023/02/10 04:32:11;;;;;;;24.25;11.70;;;0.10;66.00;;;;;;2308845;54;20951;-70
2023/02/10 04:34:38;;;;;;;24.17;10.50;;;0.10;66.00;;;;;;2488035;53;21497;-71
2023/02/10 04:37:04;;;;;;;21.92;10.40;;;0.00;65.90;;;;;;2324326;54;21000;-70
2023/02/10 04:39:31;;;;;;;27.90;12.90;;;0.00;65.90;;;;;;2317354;54;20932;-69
2023/02/10 04:41:57;;;;;;;26.20;11.68;;;0.00;65.90;;;;;;2307599;54;20927;-69
2023/02/10 04:44:24;;;;;;;20.77;10.23;;;0.00;66.00;;;;;;2308959;54;20975;-69
2023/02/10 04:46:53;;;;;;;23.98;11.00;;;0.00;66.00;;;;;;2325596;54;21691;-72
2023/02/10 04:49:19;;;;;;;24.37;11.38;;;0.00;66.00;;;;;;2307419;53;20948;-72
2023/02/10 04:51:49;;;;;;;23.45;10.75;;;-0.10;65.80;;;;;;2308048;54;21910;-72
2023/02/10 04:54:15;;;;;;;24.30;10.77;;;-0.10;65.80;;;;;;2334338;53;20964;-73
2023/02/10 04:56:41;;;;;;;21.70;10.15;;;-0.10;65.80;;;;;;2325520;54;20966;-71
2023/02/10 04:59:08;;;;;;;22.27;11.55;;;-0.10;65.90;;;;;;2337577;54;21066;-71
2023/02/10 05:01:34;;;;;;;22.02;10.57;;;-0.10;66.00;;;;;;2306646;54;20951;-70
2023/02/10 05:04:00;;;;;;;22.00;10.77;;;-0.10;66.10;;;;;;2307068;54;20955;-70
2023/02/10 05:06:27;;;;;;;22.98;11.30;;;-0.10;66.10;;;;;;2308050;54;21003;-71
2023/02/10 05:08:56;;;;;;;26.98;12.75;;;-0.10;66.10;;;;;;2307764;54;21486;-70
2023/02/10 05:11:22;;;;;;;19.60;9.48;;;-0.10;66.10;;;;;;2308109;54;21051;-71
2023/02/10 05:13:48;;;;;;;19.45;9.70;;;-0.10;66.10;;;;;;2320321;54;20989;-69
2023/02/10 05:16:15;;;;;;;19.27;9.55;;;-0.10;66.20;;;;;;2312493;53;21011;-70
2023/02/10 05:18:50;;;;;;;24.65;11.43;;;-0.20;66.10;;;;;;2307603;54;20947;-71
2023/02/10 05:21:17;;;;;;;25.60;11.25;;;-0.10;66.20;;;;;;2308162;53;21047;-72
2023/02/10 05:23:43;;;;;;;19.98;9.60;;;-0.20;66.10;;;;;;2371779;53;21531;-70
2023/02/10 05:26:09;;;;;;;22.30;10.95;;;-0.20;66.20;;;;;;2307881;54;20992;-72
2023/02/10 05:28:36;;;;;;;25.80;10.38;;;-0.20;66.20;;;;;;2308297;54;21438;-70
2023/02/10 05:31:06;;;;;;;21.30;10.07;;;-0.20;66.20;;;;;;2307667;54;21019;-69
2023/02/10 05:33:34;;;;;;;28.75;12.80;;;-0.20;66.10;;;;;;2320496;54;20992;-71
2023/02/10 05:36:00;;;;;;;24.08;10.95;;;-0.20;66.20;;;;;;2362846;53;20928;-73
2023/02/10 05:38:27;;;;;;;28.80;13.05;;;-0.20;66.30;;;;;;2407562;53;20955;-69
2023/02/10 05:40:53;;;;;;;26.90;12.70;;;-0.20;66.30;;;;;;2306582;54;20944;-68
2023/02/10 05:43:19;;;;;;;28.58;12.73;;;-0.20;67.00;;;;;;2307362;54;20979;-69
2023/02/10 05:45:46;;;;;;;23.40;11.27;;;-0.20;66.30;;;;;;2417242;53;21005;-71
2023/02/10 05:48:13;;;;;;;21.77;10.00;;;-0.20;66.30;;;;;;2307241;54;21063;-74
2023/02/10 05:50:42;;;;;;;25.65;11.18;;;-0.20;66.30;;;;;;2307376;54;20975;-72
2023/02/10 05:53:09;;;;;;;24.30;10.85;;;-0.20;66.20;;;;;;2309723;54;21462;-71
2023/02/10 05:55:35;;;;;;;24.48;11.07;;;-0.20;66.20;;;;;;2322707;54;21425;-71
2023/02/10 05:58:02;;;;;;;25.95;12.00;;;-0.20;66.30;;;;;;2310779;54;20959;-72
2023/02/10 06:00:30;;;;;;;28.23;11.98;;;-0.30;66.20;;;;;;2346064;54;20986;-72
2023/02/10 06:02:57;;;;;;;33.17;14.02;;;-0.30;66.10;;;;;;2307809;54;21273;-71
2023/02/10 06:05:23;;;;;;;27.40;13.70;;;-0.30;66.10;;;;;;2314620;53;20943;-73
2023/02/10 06:07:49;;;;;;;22.45;11.10;;;-0.30;66.20;;;;;;2413418;53;21963;-71
2023/02/10 06:10:17;;;;;;;33.35;13.85;;;-0.30;66.10;;;;;;2342069;53;22254;-73
2023/02/10 06:12:43;;;;;;;30.77;14.40;;;-0.30;66.10;;;;;;2307888;54;20963;-70
2023/02/10 06:15:09;;;;;;;30.58;14.70;;;-0.30;66.10;;;;;;2307938;54;20960;-71
2023/02/10 06:17:36;;;;;;;25.25;11.85;;;-0.30;66.00;;;;;;2308594;54;21055;-71
2023/02/10 06:20:03;;;;;;;23.75;11.48;;;-0.30;66.10;;;;;;2344414;54;20939;-73
2023/02/10 06:22:29;;;;;;;25.85;12.30;;;-0.30;66.10;;;;;;2308052;54;20932;-72
2023/02/10 06:25:01;;;;;;;25.48;12.07;;;-0.30;66.00;;;;;;2355865;53;21432;-72
2023/02/10 06:27:27;;;;;;;24.00;12.03;;;-0.30;66.00;;;;;;2396540;54;21067;-74
2023/02/10 06:29:53;;;;;;;26.62;13.07;;;-0.30;65.90;;;;;;2308046;54;21720;-70
2023/02/10 06:32:19;;;;;;;27.15;12.63;;;-0.30;66.00;;;;;;2308076;54;20943;-74
2023/02/10 06:34:46;;;;;;;27.75;12.05;;;-0.40;65.90;;;;;;2310788;54;20975;-72
2023/02/10 06:37:12;;;;;;;31.23;14.55;;;-0.40;65.90;;;;;;2307563;54;20932;-74
2023/02/10 06:39:40;;;;;;;29.50;13.77;;;-0.40;65.90;;;;;;2336113;54;21480;-71
2023/02/10 06:42:06;;;;;;;29.33;14.68;;;-0.40;65.90;;;;;;2307414;54;20995;-73
2023/02/10 06:44:32;;;;;;;25.70;12.48;;;-0.40;65.90;;;;;;2360284;54;21505;-73
2023/02/10 06:46:59;;;;;;;28.85;13.23;;;-0.40;66.00;;;;;;2312620;54;21370;-71
2023/02/10 06:49:25;;;;;;;24.12;12.35;;;-0.50;65.90;;;;;;2377093;53;21326;-75
2023/02/10 06:51:51;;;;;;;29.92;13.93;;;-0.40;66.00;;;;;;2306712;54;20943;-72
2023/02/10 06:54:17;;;;;;;31.77;14.38;;;-0.50;65.90;;;;;;2308119;54;20924;-73
2023/02/10 06:56:45;;;;;;;25.27;11.73;;;-0.50;65.90;;;;;;2308043;54;20967;-74
2023/02/10 06:59:12;;;;;;;31.90;14.15;;;-0.50;66.00;;;;;;2313328;54;21586;-73
2023/02/10 07:01:38;;;;;;;27.80;13.68;;;-0.50;66.00;;;;;;2392896;54;21299;-75
2023/02/10 07:04:05;;;;;;;30.50;14.27;;;-0.50;66.00;;;;;;2307690;54;20931;-74
2023/02/10 07:06:31;;;;;;;28.25;13.25;;;-0.50;66.00;;;;;;2308334;54;21492;-73
2023/02/10 07:08:57;;;;;;;36.10;14.63;;;-0.50;66.10;;;;;;2307952;54;20935;-72
2023/02/10 07:11:24;;;;;;;25.83;13.02;;;-0.50;66.10;;;;;;2308465;54;21247;-69
2023/02/10 07:13:50;;;;;;;26.52;12.98;;;-0.50;66.10;;;;;;2354797;53;21420;-71
2023/02/10 07:16:16;;;;;;;26.65;13.20;;;-0.50;66.10;;;;;;2504501;53;21255;-73
2023/02/10 07:18:43;;;;;;;26.70;12.77;;;-0.50;66.20;;;;;;2321716;54;20952;-71
2023/02/10 07:21:09;;;;;;;31.45;13.85;;;-0.50;66.30;;;;;;2315489;54;20931;-73
2023/02/10 07:23:35;;;;;;;33.42;14.13;;;-0.50;66.30;;;;;;2489927;53;21619;-70
2023/02/10 07:26:04;;;;;;;34.38;13.88;;;-0.50;66.30;;;;;;2310324;54;20986;-71
2023/02/10 07:28:30;;;;;;;32.80;16.33;;;-0.50;66.40;;;;;;2392018;53;21495;-73
2023/02/10 07:30:57;;;;;;;34.88;16.02;;;-0.50;66.40;;;;;;2347685;54;20939;-75
2023/02/10 07:33:23;;;;;;;28.35;14.82;;;-0.50;66.60;;;;;;2547541;53;21071;-73
2023/02/10 07:35:49;;;;;;;26.85;14.25;;;-0.50;66.60;;;;;;2308294;54;20972;-73
2023/02/10 07:38:16;;;;;;;26.85;13.95;;;-0.50;66.70;;;;;;2308128;54;20987;-73
2023/02/10 07:40:42;;;;;;;25.27;12.70;;;-0.50;66.80;;;;;;2308194;54;20930;-72
2023/02/10 07:43:08;;;;;;;25.98;13.02;;;-0.40;66.90;;;;;;2307934;54;20943;-71
2023/02/10 07:45:35;;;;;;;28.92;13.30;;;-0.40;67.00;;;;;;2308311;54;21947;-72
2023/02/10 07:48:01;;;;;;;27.17;13.32;;;-0.40;67.00;;;;;;2366552;53;21411;-73
2023/02/10 07:50:27;;;;;;;35.22;17.15;;;-0.40;67.10;;;;;;2308531;54;21363;-70
2023/02/10 07:52:57;;;;;;;34.40;16.70;;;-0.30;67.30;;;;;;2449979;53;21373;-75
2023/02/10 07:55:23;;;;;;;35.58;17.17;;;-0.30;67.30;;;;;;2308650;54;20948;-72
2023/02/10 07:57:50;;;;;;;33.65;16.85;;;-0.30;67.30;;;;;;2308275;54;20963;-72
2023/02/10 08:00:17;;;;;;;29.25;13.73;;;-0.30;67.40;;;;;;2332263;53;21413;-73
2023/02/10 08:02:43;;;;;;;37.53;16.55;;;-0.20;67.60;;;;;;2309197;54;21054;-73
2023/02/10 08:05:09;;;;;;;34.50;16.48;;;-0.20;67.60;;;;;;2446810;53;21007;-75
2023/02/10 08:07:36;;;;;;;35.47;16.92;;;-0.10;67.80;;;;;;2308519;54;21031;-75
2023/02/10 08:10:02;;;;;;;29.92;14.45;;;-0.10;67.90;;;;;;2307845;54;21286;-71
2023/02/10 08:12:29;;;;;;;33.08;15.52;;;-0.10;67.90;;;;;;2312061;54;20971;-71
2023/02/10 08:14:55;;;;;;;27.23;13.38;;;0.00;68.10;;;;;;2409047;53;21003;-73
2023/02/10 08:17:21;;;;;;;33.67;15.27;;;0.00;68.20;;;;;;2376273;55;20974;-74
2023/02/10 08:19:48;;;;;;;28.15;13.23;;;0.10;68.40;;;;;;2334886;55;21459;-71
2023/02/10 08:22:14;;;;;;;27.27;13.15;;;0.10;69.10;;;;;;2306665;54;20944;-73
2023/02/10 08:24:40;;;;;;;24.92;12.88;;;0.20;68.50;;;;;;2308566;54;20955;-72
2023/02/10 08:27:06;;;;;;;31.67;14.35;;;0.20;68.60;;;;;;2307943;54;21405;-75
2023/02/10 08:29:33;;;;;;;33.03;14.87;;;0.30;68.80;;;;;;2305007;54;20951;-71
2023/02/10 08:31:59;;;;;;;33.42;14.32;;;0.30;68.90;;;;;;2307780;54;21050;-70
2023/02/10 08:34:26;;;;;;;28.35;13.38;;;0.40;69.10;;;;;;2308575;54;21063;-74
2023/02/10 08:36:52;;;;;;;28.12;13.35;;;0.50;69.20;;;;;;2308206;53;21020;-72
2023/02/10 08:39:18;;;;;;;29.10;14.18;;;0.50;69.30;;;;;;2307920;54;21535;-71
2023/02/10 08:41:45;;;;;;;32.55;14.27;;;0.60;69.60;;;;;;2308584;54;20979;-70
2023/02/10 08:44:14;;;;;;;31.25;15.43;;;0.70;69.80;;;;;;2307819;54;20979;-71
2023/02/10 08:46:40;;;;;;;31.65;15.63;;;0.80;69.90;;;;;;2308336;54;20951;-73
2023/02/10 08:49:06;;;;;;;29.02;15.02;;;0.90;70.20;;;;;;2308893;54;20935;-72
2023/02/10 08:51:33;;;;;;;32.67;15.95;;;0.90;70.40;;;;;;2308475;54;21446;-69
2023/02/10 08:54:03;;;;;;;38.70;18.42;;;1.00;70.70;;;;;;2364229;53;21003;-69
2023/02/10 08:56:29;;;;;;;33.20;15.48;;;1.10;70.90;;;;;;2308408;54;20987;-72
2023/02/10 08:58:55;;;;;;;31.87;16.90;;;1.30;71.20;;;;;;2308224;54;20923;-70
2023/02/10 09:01:25;;;;;;;37.53;17.33;;;1.40;71.30;;;;;;2362996;53;20892;-73
2023/02/10 09:03:54;;;;;;;32.53;15.50;;;1.50;71.40;;;;;;2308418;54;21728;-72
2023/02/10 09:06:22;;;;;;;32.22;15.60;;;1.60;71.50;;;;;;2338610;53;20931;-71
2023/02/10 09:08:49;;;;;;;32.25;16.42;;;1.70;71.50;;;;;;2308300;54;21187;-70
2023/02/10 09:11:16;;;;;;;33.30;15.15;;;1.80;71.60;;;;;;2309575;54;20942;-72
2023/02/10 09:13:42;;;;;;;32.40;15.15;;;1.80;71.50;;;;;;2407012;53;21322;-73
2023/02/10 09:16:08;;;;;;;29.50;15.27;;;2.00;71.70;;;;;;2308002;54;20959;-73
2023/02/10 09:18:35;;;;;;;35.72;16.55;;;2.00;71.60;;;;;;2457640;53;21438;-71
2023/02/10 09:21:01;;;;;;;33.50;16.73;;;2.20;72.40;;;;;;2307676;54;21022;-72
2023/02/10 09:23:28;;;;;;;32.67;16.05;;;2.20;71.70;;;;;;2515166;53;20975;-71
2023/02/10 09:25:58;;;;;;;38.28;18.45;;;2.30;71.80;;;;;;2308043;54;20995;-73
2023/02/10 09:28:24;;;;;;;32.20;15.88;;;2.40;71.80;;;;;;2309026;54;21432;-70
2023/02/10 09:30:51;;;;;;;26.12;14.35;;;2.50;71.90;;;;;;2308106;54;21719;-73
2023/02/10 09:33:17;;;;;;;32.75;16.58;;;2.60;71.90;;;;;;2308030;54;21209;-73
2023/02/10 09:35:43;;;;;;;39.50;19.45;;;2.70;72.00;;;;;;2308361;54;21752;-71
2023/02/10 09:38:10;;;;;;;37.40;19.70;;;2.80;72.10;;;;;;2308113;54;20991;-72
2023/02/10 09:40:50;;;;;;;40.10;19.62;;;2.90;72.20;;;;;;2308693;54;20948;-71
2023/02/10 09:47:06;;;;;;;37.72;20.10;;;3.00;72.40;;;;;;2370329;53;21000;-73
2023/02/10 09:51:28;;;;;;;33.80;16.75;;;3.30;72.20;;;;;;2308609;54;20931;-73
2023/02/10 09:53:54;;;;;;;26.35;13.70;;;3.50;73.00;;;;;;2455253;53;21277;-73
2023/02/10 09:56:21;;;;;;;32.88;15.30;;;3.70;73.50;;;;;;2363949;53;21384;-70
2023/02/10 09:58:56;;;;;;;28.83;14.65;;;3.80;73.80;;;;;;2308336;54;20959;-73
2023/02/10 10:01:24;;;;;;;28.05;14.30;;;3.90;73.80;;;;;;2308548;54;20907;-74
2023/02/10 10:04:07;;;;;;;40.72;20.48;;;4.10;73.90;;;;;;2308158;54;21283;-73
2023/02/10 10:06:38;;;;;;;43.03;21.23;;;4.20;74.30;;;;;;2308284;54;21486;-72
2023/02/10 10:09:53;;;;;;;35.80;17.25;;;4.40;74.90;;;;;;2307870;54;20987;-73
2023/02/10 10:12:20;;;;;;;34.00;15.90;;;4.60;75.00;;;;;;2465031;53;21062;-71
2023/02/10 10:14:46;;;;;;;29.60;15.90;;;4.80;75.50;;;;;;2340902;54;21052;-73
2023/02/10 10:18:01;;;;;;;27.42;16.02;;;4.90;75.40;;;;;;2308085;54;21031;-72
2023/02/10 10:21:15;;;;;;;31.35;15.57;;;5.10;75.40;;;;;;2308666;54;20982;-72
2023/02/10 10:24:07;;;;;;;25.52;13.98;;;5.30;75.00;;;;;;2308435;54;20940;-73
2023/02/10 10:27:10;;;;;;;25.05;12.82;;;5.50;75.10;;;;;;2344690;54;21047;-73
2023/02/10 10:29:41;;;;;;;;;;;5.70;74.90;;;;;;2312316;54;21019;-74
2023/02/10 10:32:21;;;;;;;25.60;13.55;;;5.80;73.90;;;;;;2440631;53;20094;-73
2023/02/10 10:34:52;;;;;;;21.90;13.05;;;5.90;74.70;;;;;;2308333;54;21367;-72
2023/02/10 10:37:20;;;;;;;25.83;14.45;;;6.10;74.50;;;;;;2311053;53;21317;-75
2023/02/10 10:39:49;;;;;;;27.62;15.32;;;6.10;74.40;;;;;;2308864;54;20935;-75
2023/02/10 10:42:37;;;;;;;30.25;16.90;;;6.20;74.20;;;;;;2374747;53;21437;-73
2023/02/10 10:45:20;;;;;;;28.25;16.20;;;6.30;73.90;;;;;;2307798;54;20967;-75
2023/02/10 10:48:09;;;;;;;25.95;13.82;;;6.40;74.00;;;;;;2308678;54;21598;-74
2023/02/10 10:50:35;;;;;;;26.00;14.48;;;6.50;73.50;;;;;;2312412;53;21003;-72
2023/02/10 10:53:04;;;;;;;26.83;16.10;;;6.60;74.10;;;;;;2367479;53;21433;-75
2023/02/10 10:55:38;;;;;;;27.58;15.32;;;6.70;73.90;;;;;;2547496;53;20934;-75
2023/02/10 10:58:25;;;;;;;27.52;15.55;;;6.70;73.70;;;;;;2332082;53;21476;-73
2023/02/10 11:00:52;;;;;;;26.83;15.57;;;6.80;73.20;;;;;;2308613;54;21784;-74
2023/02/10 11:03:19;;;;;;;25.12;14.73;;;6.90;73.60;;;;;;2308180;54;21011;-75
2023/02/10 11:06:06;;;;;;;26.42;15.00;;;7.00;73.70;;;;;;2395852;53;20932;-75
2023/02/10 11:08:52;;;;;;;26.48;15.45;;;7.00;73.30;;;;;;2326751;53;21059;-73
2023/02/10 11:11:18;;;;;;;27.35;15.77;;;7.10;73.60;;;;;;2307969;54;21496;-75
2023/02/10 11:14:02;;;;;;;25.83;15.50;;;7.20;73.60;;;;;;2308087;54;20951;-74
2023/02/10 11:16:29;;;;;;;26.25;16.30;;;7.30;73.50;;;;;;2353776;53;21381;-74
2023/02/10 11:18:57;;;;;;;25.95;15.35;;;7.30;73.30;;;;;;2308147;54;21408;-72
2023/02/10 11:21:37;;;;;;;26.87;16.83;;;7.40;73.30;;;;;;2308441;54;21333;-73
2023/02/10 11:24:03;;;;;;;29.40;18.12;;;7.50;73.10;;;;;;2307840;54;21411;-74
2023/02/10 11:26:29;;;;;;;34.75;21.00;;;7.50;73.70;;;;;;2308503;54;21055;-73
2023/02/10 11:28:56;;;;;;;31.48;19.52;;;7.60;74.10;;;;;;2308048;54;20991;-72
2023/02/10 11:31:28;;;;;;;30.48;17.90;;;7.70;74.20;;;;;;2304816;54;21504;-75
2023/02/10 11:34:00;;;;;;;30.05;18.52;;;7.80;73.90;;;;;;2308494;54;20963;-73
2023/02/10 11:36:37;;;;;;;31.07;18.63;;;7.80;73.90;;;;;;2309548;53;21321;-76
2023/02/10 11:39:06;;;;;;;31.27;18.48;;;7.90;73.40;;;;;;2308109;54;21294;-74
2023/02/10 11:41:32;;;;;;;30.23;19.02;;;8.00;73.70;;;;;;2448478;53;20939;-75
2023/02/10 11:43:59;;;;;;;31.23;18.80;;;8.10;73.70;;;;;;2344379;53;20932;-73
2023/02/10 11:46:27;;;;;;;30.58;18.55;;;8.20;73.50;;;;;;2398112;53;21832;-75
2023/02/10 11:48:58;;;;;;;28.85;18.20;;;8.20;73.50;;;;;;2307775;54;21003;-74
2023/02/10 11:51:25;;;;;;;35.35;20.40;;;8.30;73.40;;;;;;2308504;54;20976;-74
2023/02/10 11:53:51;;;;;;;40.05;22.30;;;8.40;73.70;;;;;;2308938;54;20928;-74
2023/02/10 11:59:18;;;;;;;33.83;20.48;;;8.40;73.70;;;;;;2307803;54;20959;-74
2023/02/10 12:01:51;;;;;;;27.20;17.60;;;8.50;71.90;;;;;;2307965;54;20959;-72
2023/02/10 12:04:35;;;;;;;;;;;8.60;72.70;;;;;;2458445;53;21539;-73
2023/02/10 12:07:13;;;;;;;23.55;14.10;;;8.60;71.20;;;;;;2363910;54;20125;-74
2023/02/10 12:09:45;;;;;;;26.52;15.10;;;8.60;72.20;;;;;;2280600;55;21454;-75
2023/02/10 12:12:23;;;;;;;27.10;16.85;;;8.70;72.20;;;;;;2280066;55;21489;-74
2023/02/10 12:15:28;;;;;;;32.60;19.33;;;8.70;72.10;;;;;;2280557;56;21002;-74
2023/02/10 12:18:23;;;;;;;28.42;17.55;;;8.70;71.20;;;;;;2289340;54;20910;-74
2023/02/10 12:24:39;;;;;;;33.10;19.40;;;8.70;71.30;;;;;;2280498;54;21022;-74
2023/02/10 12:27:43;;;;;;;24.90;15.43;;;8.70;70.30;;;;;;2366058;55;20929;-75
2023/02/10 12:32:59;;;;;;;25.55;16.33;;;8.70;71.00;;;;;;2281947;56;20960;-75
2023/02/10 12:35:34;;;;;;;27.00;16.55;;;8.70;70.30;;;;;;2281881;56;20964;-75
2023/02/10 12:41:50;;;;;;;31.87;18.98;;;8.70;71.80;;;;;;2427241;53;20960;-74
2023/02/10 12:44:47;;;;;;;25.95;14.27;;;8.80;70.50;;;;;;2307661;54;21404;-75
2023/02/10 12:54:24;;;;;;;25.65;16.30;;;8.80;71.20;;;;;;2307329;54;20960;-75
2023/02/10 12:57:14;;;;;;;25.48;14.30;;;8.80;70.90;;;;;;2307097;54;20968;-75
2023/02/10 12:59:53;;;;;;;25.05;15.60;;;8.90;71.90;;;;;;2307656;54;20951;-74
2023/02/10 13:02:39;;;;;;;29.15;18.23;;;9.00;71.80;;;;;;2352539;53;22350;-74
2023/02/10 13:05:13;;;;;;;26.48;16.25;;;9.00;71.50;;;;;;2307042;54;20931;-75
2023/02/10 13:07:48;;;;;;;27.73;16.80;;;9.00;71.70;;;;;;2546179;53;21841;-75
2023/02/10 13:11:07;;;;;;;28.50;18.05;;;9.00;71.70;;;;;;2307436;54;21491;-74
2023/02/10 13:13:37;;;;;;;25.83;15.32;;;9.00;70.30;;;;;;2281716;54;21490;-74
2023/02/10 13:16:15;;;;;;;27.00;16.87;;;9.00;71.70;;;;;;2373196;54;21924;-74
2023/02/10 13:18:54;;;;;;;28.40;16.48;;;9.10;71.70;;;;;;2546597;54;20914;-75
2023/02/10 13:21:39;;;;;;;27.08;16.05;;;9.10;71.60;;;;;;2442858;54;21579;-74
2023/02/10 13:24:17;;;;;;;25.40;16.17;;;9.20;71.30;;;;;;2342108;54;20963;-74
2023/02/10 13:27:04;;;;;;;29.15;17.65;;;9.20;71.30;;;;;;2339450;54;21339;-74
2023/02/10 13:29:56;;;;;;;30.08;17.65;;;9.20;70.80;;;;;;2288570;54;20981;-74
2023/02/10 13:33:15;;;;;;;30.67;17.07;;;9.30;71.10;;;;;;2291421;53;20986;-74
2023/02/10 13:35:42;;;;;;;27.02;16.42;;;9.30;69.90;;;;;;2281542;54;21057;-74
2023/02/10 13:38:10;;;;;;;26.42;16.70;;;9.30;71.40;;;;;;2296491;54;20971;-74